<?xml version="1.0" encoding="UTF-8" standalone="no" ?>
<gpx xmlns="http://www.topografix.com/GPX/1/1" xmlns:xsi="http://www.w3.org/2001/XMLSchema-instance" xsi:schemaLocation="http://www.topografix.com/GPX/1/1 http://www.topografix.com/GPX/1/1/gpx.xsd" version="1.1" creator="VisuGPX - https://www.visugpx.com">
  <metadata>
    <name>Bourges - Charost</name>
    <desc><![CDATA[LE CHEMIN VERS COMPOSTELLE, LA VOIE DE VEZELAY PAR BOURGES.]]></desc>
  </metadata>
  <trk>
    <name><![CDATA[9539957-Bourges - Charost]]></name>
    <trkseg>
      <trkpt lat="47.08229" lon="2.39822">
        <ele>155</ele>
        <time>2019-02-04T18:02:50Z</time>
      </trkpt>
      <trkpt lat="47.08215" lon="2.39741">
        <ele>154</ele>
        <time>2019-02-04T18:03:50Z</time>
      </trkpt>
      <trkpt lat="47.08208" lon="2.39713">
        <ele>153</ele>
        <time>2019-02-04T18:04:50Z</time>
      </trkpt>
      <trkpt lat="47.08216" lon="2.39711">
        <ele>153</ele>
        <time>2019-02-04T18:05:50Z</time>
      </trkpt>
      <trkpt lat="47.08244" lon="2.39683">
        <ele>153</ele>
        <time>2019-02-04T18:06:50Z</time>
      </trkpt>
      <trkpt lat="47.08286" lon="2.39652">
        <ele>152</ele>
        <time>2019-02-04T18:07:50Z</time>
      </trkpt>
      <trkpt lat="47.08318" lon="2.39623">
        <ele>152</ele>
        <time>2019-02-04T18:08:50Z</time>
      </trkpt>
      <trkpt lat="47.08289" lon="2.39575">
        <ele>149</ele>
        <time>2019-02-04T18:09:50Z</time>
      </trkpt>
      <trkpt lat="47.08268" lon="2.39571">
        <ele>149</ele>
        <time>2019-02-04T18:10:50Z</time>
      </trkpt>
      <trkpt lat="47.08255" lon="2.39544">
        <ele>146</ele>
        <time>2019-02-04T18:11:50Z</time>
      </trkpt>
      <trkpt lat="47.08244" lon="2.39528">
        <ele>145</ele>
        <time>2019-02-04T18:12:50Z</time>
      </trkpt>
      <trkpt lat="47.08234" lon="2.39493">
        <ele>142</ele>
        <time>2019-02-04T18:13:50Z</time>
      </trkpt>
      <trkpt lat="47.08195" lon="2.39388">
        <ele>135</ele>
        <time>2019-02-04T18:14:50Z</time>
      </trkpt>
      <trkpt lat="47.0816" lon="2.393">
        <ele>132</ele>
        <time>2019-02-04T18:15:50Z</time>
      </trkpt>
      <trkpt lat="47.08115" lon="2.39233">
        <ele>131</ele>
        <time>2019-02-04T18:16:50Z</time>
      </trkpt>
      <trkpt lat="47.08045" lon="2.39146">
        <ele>130</ele>
        <time>2019-02-04T18:17:50Z</time>
      </trkpt>
      <trkpt lat="47.07971" lon="2.39047">
        <ele>129</ele>
        <time>2019-02-04T18:18:50Z</time>
      </trkpt>
      <trkpt lat="47.0794" lon="2.38999">
        <ele>129</ele>
        <time>2019-02-04T18:19:50Z</time>
      </trkpt>
      <trkpt lat="47.07901" lon="2.38947">
        <ele>128</ele>
        <time>2019-02-04T18:20:50Z</time>
      </trkpt>
      <trkpt lat="47.07878" lon="2.38909">
        <ele>128</ele>
        <time>2019-02-04T18:21:50Z</time>
      </trkpt>
      <trkpt lat="47.07845" lon="2.38864">
        <ele>127</ele>
        <time>2019-02-04T18:22:50Z</time>
      </trkpt>
      <trkpt lat="47.07764" lon="2.38749">
        <ele>128</ele>
        <time>2019-02-04T18:23:50Z</time>
      </trkpt>
      <trkpt lat="47.07684" lon="2.38632">
        <ele>129</ele>
        <time>2019-02-04T18:24:50Z</time>
      </trkpt>
      <trkpt lat="47.07575" lon="2.38465">
        <ele>131</ele>
        <time>2019-02-04T18:25:50Z</time>
      </trkpt>
      <trkpt lat="47.07561" lon="2.38438">
        <ele>132</ele>
        <time>2019-02-04T18:26:50Z</time>
      </trkpt>
      <trkpt lat="47.07435" lon="2.38253">
        <ele>137</ele>
        <time>2019-02-04T18:27:50Z</time>
      </trkpt>
      <trkpt lat="47.07276" lon="2.3803">
        <ele>144</ele>
        <time>2019-02-04T18:28:50Z</time>
      </trkpt>
      <trkpt lat="47.0709" lon="2.3777">
        <ele>145</ele>
        <time>2019-02-04T18:29:50Z</time>
      </trkpt>
      <trkpt lat="47.06968" lon="2.37593">
        <ele>150</ele>
        <time>2019-02-04T18:30:50Z</time>
      </trkpt>
      <trkpt lat="47.06928" lon="2.37548">
        <ele>152</ele>
        <time>2019-02-04T18:31:50Z</time>
      </trkpt>
      <trkpt lat="47.06909" lon="2.37505">
        <ele>152</ele>
        <time>2019-02-04T18:32:50Z</time>
      </trkpt>
      <trkpt lat="47.06853" lon="2.37367">
        <ele>155</ele>
        <time>2019-02-04T18:33:50Z</time>
      </trkpt>
      <trkpt lat="47.06727" lon="2.37103">
        <ele>152</ele>
        <time>2019-02-04T18:34:50Z</time>
      </trkpt>
      <trkpt lat="47.0664" lon="2.36919">
        <ele>149</ele>
        <time>2019-02-04T18:35:50Z</time>
      </trkpt>
      <trkpt lat="47.06591" lon="2.36809">
        <ele>147</ele>
        <time>2019-02-04T18:36:50Z</time>
      </trkpt>
      <trkpt lat="47.0648" lon="2.36534">
        <ele>147</ele>
        <time>2019-02-04T18:37:50Z</time>
      </trkpt>
      <trkpt lat="47.06412" lon="2.36387">
        <ele>148</ele>
        <time>2019-02-04T18:38:50Z</time>
      </trkpt>
      <trkpt lat="47.06305" lon="2.36135">
        <ele>152</ele>
        <time>2019-02-04T18:39:50Z</time>
      </trkpt>
      <trkpt lat="47.06162" lon="2.3583">
        <ele>156</ele>
        <time>2019-02-04T18:40:50Z</time>
      </trkpt>
      <trkpt lat="47.0614" lon="2.35775">
        <ele>157</ele>
        <time>2019-02-04T18:41:50Z</time>
      </trkpt>
      <trkpt lat="47.06115" lon="2.357">
        <ele>158</ele>
        <time>2019-02-04T18:42:50Z</time>
      </trkpt>
      <trkpt lat="47.06068" lon="2.35631">
        <ele>159</ele>
        <time>2019-02-04T18:43:50Z</time>
      </trkpt>
      <trkpt lat="47.06034" lon="2.35557">
        <ele>160</ele>
        <time>2019-02-04T18:44:50Z</time>
      </trkpt>
      <trkpt lat="47.05991" lon="2.3544">
        <ele>160</ele>
        <time>2019-02-04T18:45:50Z</time>
      </trkpt>
      <trkpt lat="47.05929" lon="2.35256">
        <ele>156</ele>
        <time>2019-02-04T18:46:50Z</time>
      </trkpt>
      <trkpt lat="47.05828" lon="2.34938">
        <ele>151</ele>
        <time>2019-02-04T18:47:50Z</time>
      </trkpt>
      <trkpt lat="47.0576" lon="2.34689">
        <ele>146</ele>
        <time>2019-02-04T18:48:50Z</time>
      </trkpt>
      <trkpt lat="47.05674" lon="2.34339">
        <ele>138</ele>
        <time>2019-02-04T18:49:50Z</time>
      </trkpt>
      <trkpt lat="47.05687" lon="2.34263">
        <ele>139</ele>
        <time>2019-02-04T18:50:50Z</time>
      </trkpt>
      <trkpt lat="47.05711" lon="2.34115">
        <ele>142</ele>
        <time>2019-02-04T18:51:50Z</time>
      </trkpt>
      <trkpt lat="47.05766" lon="2.33941">
        <ele>143</ele>
        <time>2019-02-04T18:52:50Z</time>
      </trkpt>
      <trkpt lat="47.05787" lon="2.33871">
        <ele>145</ele>
        <time>2019-02-04T18:53:50Z</time>
      </trkpt>
      <trkpt lat="47.0587" lon="2.33565">
        <ele>150</ele>
        <time>2019-02-04T18:54:50Z</time>
      </trkpt>
      <trkpt lat="47.05889" lon="2.3354">
        <ele>150</ele>
        <time>2019-02-04T18:55:50Z</time>
      </trkpt>
      <trkpt lat="47.05975" lon="2.33477">
        <ele>150</ele>
        <time>2019-02-04T18:56:50Z</time>
      </trkpt>
      <trkpt lat="47.05984" lon="2.33446">
        <ele>149</ele>
        <time>2019-02-04T18:57:50Z</time>
      </trkpt>
      <trkpt lat="47.05984" lon="2.33358">
        <ele>147</ele>
        <time>2019-02-04T18:58:50Z</time>
      </trkpt>
      <trkpt lat="47.05958" lon="2.33103">
        <ele>144</ele>
        <time>2019-02-04T18:59:50Z</time>
      </trkpt>
      <trkpt lat="47.05945" lon="2.33041">
        <ele>144</ele>
        <time>2019-02-04T19:00:50Z</time>
      </trkpt>
      <trkpt lat="47.06179" lon="2.32697">
        <ele>146</ele>
        <time>2019-02-04T19:01:50Z</time>
      </trkpt>
      <trkpt lat="47.06224" lon="2.3263">
        <ele>147</ele>
        <time>2019-02-04T19:02:50Z</time>
      </trkpt>
      <trkpt lat="47.06278" lon="2.32597">
        <ele>147</ele>
        <time>2019-02-04T19:03:50Z</time>
      </trkpt>
      <trkpt lat="47.06195" lon="2.32306">
        <ele>151</ele>
        <time>2019-02-04T19:04:50Z</time>
      </trkpt>
      <trkpt lat="47.06276" lon="2.32271">
        <ele>149</ele>
        <time>2019-02-04T19:05:50Z</time>
      </trkpt>
      <trkpt lat="47.06334" lon="2.3214">
        <ele>148</ele>
        <time>2019-02-04T19:06:50Z</time>
      </trkpt>
      <trkpt lat="47.06326" lon="2.32069">
        <ele>147</ele>
        <time>2019-02-04T19:07:50Z</time>
      </trkpt>
      <trkpt lat="47.06304" lon="2.32046">
        <ele>146</ele>
        <time>2019-02-04T19:08:50Z</time>
      </trkpt>
      <trkpt lat="47.06283" lon="2.31935">
        <ele>145</ele>
        <time>2019-02-04T19:09:50Z</time>
      </trkpt>
      <trkpt lat="47.06271" lon="2.31856">
        <ele>144</ele>
        <time>2019-02-04T19:10:50Z</time>
      </trkpt>
      <trkpt lat="47.06258" lon="2.31833">
        <ele>144</ele>
        <time>2019-02-04T19:11:50Z</time>
      </trkpt>
      <trkpt lat="47.06207" lon="2.31822">
        <ele>144</ele>
        <time>2019-02-04T19:12:50Z</time>
      </trkpt>
      <trkpt lat="47.06173" lon="2.318">
        <ele>143</ele>
        <time>2019-02-04T19:13:50Z</time>
      </trkpt>
      <trkpt lat="47.06159" lon="2.31748">
        <ele>142</ele>
        <time>2019-02-04T19:14:50Z</time>
      </trkpt>
      <trkpt lat="47.0615" lon="2.31575">
        <ele>143</ele>
        <time>2019-02-04T19:15:50Z</time>
      </trkpt>
      <trkpt lat="47.06086" lon="2.31396">
        <ele>140</ele>
        <time>2019-02-04T19:16:50Z</time>
      </trkpt>
      <trkpt lat="47.06047" lon="2.31366">
        <ele>141</ele>
        <time>2019-02-04T19:17:50Z</time>
      </trkpt>
      <trkpt lat="47.05987" lon="2.31334">
        <ele>142</ele>
        <time>2019-02-04T19:18:50Z</time>
      </trkpt>
      <trkpt lat="47.05903" lon="2.31293">
        <ele>144</ele>
        <time>2019-02-04T19:19:50Z</time>
      </trkpt>
      <trkpt lat="47.05823" lon="2.31258">
        <ele>146</ele>
        <time>2019-02-04T19:20:50Z</time>
      </trkpt>
      <trkpt lat="47.05772" lon="2.3123">
        <ele>147</ele>
        <time>2019-02-04T19:21:50Z</time>
      </trkpt>
      <trkpt lat="47.05696" lon="2.31163">
        <ele>146</ele>
        <time>2019-02-04T19:22:50Z</time>
      </trkpt>
      <trkpt lat="47.0562" lon="2.31084">
        <ele>147</ele>
        <time>2019-02-04T19:23:50Z</time>
      </trkpt>
      <trkpt lat="47.05516" lon="2.30985">
        <ele>151</ele>
        <time>2019-02-04T19:24:50Z</time>
      </trkpt>
      <trkpt lat="47.05322" lon="2.30777">
        <ele>150</ele>
        <time>2019-02-04T19:25:50Z</time>
      </trkpt>
      <trkpt lat="47.05201" lon="2.30642">
        <ele>150</ele>
        <time>2019-02-04T19:26:50Z</time>
      </trkpt>
      <trkpt lat="47.05152" lon="2.30545">
        <ele>151</ele>
        <time>2019-02-04T19:27:50Z</time>
      </trkpt>
      <trkpt lat="47.0511" lon="2.30436">
        <ele>150</ele>
        <time>2019-02-04T19:28:50Z</time>
      </trkpt>
      <trkpt lat="47.05077" lon="2.30292">
        <ele>147</ele>
        <time>2019-02-04T19:29:50Z</time>
      </trkpt>
      <trkpt lat="47.05067" lon="2.30183">
        <ele>146</ele>
        <time>2019-02-04T19:30:50Z</time>
      </trkpt>
      <trkpt lat="47.05027" lon="2.29835">
        <ele>152</ele>
        <time>2019-02-04T19:31:50Z</time>
      </trkpt>
      <trkpt lat="47.04996" lon="2.2952">
        <ele>155</ele>
        <time>2019-02-04T19:32:50Z</time>
      </trkpt>
      <trkpt lat="47.0492" lon="2.29203">
        <ele>150</ele>
        <time>2019-02-04T19:33:50Z</time>
      </trkpt>
      <trkpt lat="47.04817" lon="2.28873">
        <ele>148</ele>
        <time>2019-02-04T19:34:50Z</time>
      </trkpt>
      <trkpt lat="47.04762" lon="2.287">
        <ele>150</ele>
        <time>2019-02-04T19:35:50Z</time>
      </trkpt>
      <trkpt lat="47.04693" lon="2.28659">
        <ele>150</ele>
        <time>2019-02-04T19:36:50Z</time>
      </trkpt>
      <trkpt lat="47.04469" lon="2.28474">
        <ele>150</ele>
        <time>2019-02-04T19:37:50Z</time>
      </trkpt>
      <trkpt lat="47.04176" lon="2.28231">
        <ele>146</ele>
        <time>2019-02-04T19:38:50Z</time>
      </trkpt>
      <trkpt lat="47.03848" lon="2.27955">
        <ele>148</ele>
        <time>2019-02-04T19:39:50Z</time>
      </trkpt>
      <trkpt lat="47.03723" lon="2.27855">
        <ele>146</ele>
        <time>2019-02-04T19:40:50Z</time>
      </trkpt>
      <trkpt lat="47.03688" lon="2.27804">
        <ele>145</ele>
        <time>2019-02-04T19:41:50Z</time>
      </trkpt>
      <trkpt lat="47.03673" lon="2.27775">
        <ele>144</ele>
        <time>2019-02-04T19:42:50Z</time>
      </trkpt>
      <trkpt lat="47.03632" lon="2.277">
        <ele>141</ele>
        <time>2019-02-04T19:43:50Z</time>
      </trkpt>
      <trkpt lat="47.03651" lon="2.27505">
        <ele>136</ele>
        <time>2019-02-04T19:44:50Z</time>
      </trkpt>
      <trkpt lat="47.03655" lon="2.27398">
        <ele>135</ele>
        <time>2019-02-04T19:45:50Z</time>
      </trkpt>
      <trkpt lat="47.03626" lon="2.27364">
        <ele>134</ele>
        <time>2019-02-04T19:46:50Z</time>
      </trkpt>
      <trkpt lat="47.03578" lon="2.273">
        <ele>133</ele>
        <time>2019-02-04T19:47:50Z</time>
      </trkpt>
      <trkpt lat="47.03527" lon="2.27244">
        <ele>133</ele>
        <time>2019-02-04T19:48:50Z</time>
      </trkpt>
      <trkpt lat="47.03507" lon="2.27195">
        <ele>132</ele>
        <time>2019-02-04T19:49:50Z</time>
      </trkpt>
      <trkpt lat="47.03488" lon="2.271">
        <ele>132</ele>
        <time>2019-02-04T19:50:50Z</time>
      </trkpt>
      <trkpt lat="47.03478" lon="2.27024">
        <ele>133</ele>
        <time>2019-02-04T19:51:50Z</time>
      </trkpt>
      <trkpt lat="47.03474" lon="2.26884">
        <ele>137</ele>
        <time>2019-02-04T19:52:50Z</time>
      </trkpt>
      <trkpt lat="47.03453" lon="2.26754">
        <ele>138</ele>
        <time>2019-02-04T19:53:50Z</time>
      </trkpt>
      <trkpt lat="47.03434" lon="2.26588">
        <ele>141</ele>
        <time>2019-02-04T19:54:50Z</time>
      </trkpt>
      <trkpt lat="47.03375" lon="2.26204">
        <ele>143</ele>
        <time>2019-02-04T19:55:50Z</time>
      </trkpt>
      <trkpt lat="47.03371" lon="2.26174">
        <ele>143</ele>
        <time>2019-02-04T19:56:50Z</time>
      </trkpt>
      <trkpt lat="47.03334" lon="2.26068">
        <ele>144</ele>
        <time>2019-02-04T19:57:50Z</time>
      </trkpt>
      <trkpt lat="47.03299" lon="2.25869">
        <ele>142</ele>
        <time>2019-02-04T19:58:50Z</time>
      </trkpt>
      <trkpt lat="47.03274" lon="2.25758">
        <ele>139</ele>
        <time>2019-02-04T19:59:50Z</time>
      </trkpt>
      <trkpt lat="47.03191" lon="2.25456">
        <ele>133</ele>
        <time>2019-02-04T20:00:50Z</time>
      </trkpt>
      <trkpt lat="47.03166" lon="2.25244">
        <ele>136</ele>
        <time>2019-02-04T20:01:50Z</time>
      </trkpt>
      <trkpt lat="47.03129" lon="2.25144">
        <ele>142</ele>
        <time>2019-02-04T20:02:50Z</time>
      </trkpt>
      <trkpt lat="47.03124" lon="2.24837">
        <ele>140</ele>
        <time>2019-02-04T20:03:50Z</time>
      </trkpt>
      <trkpt lat="47.03128" lon="2.24758">
        <ele>138</ele>
        <time>2019-02-04T20:04:50Z</time>
      </trkpt>
      <trkpt lat="47.03096" lon="2.24544">
        <ele>141</ele>
        <time>2019-02-04T20:05:50Z</time>
      </trkpt>
      <trkpt lat="47.03095" lon="2.24431">
        <ele>144</ele>
        <time>2019-02-04T20:06:50Z</time>
      </trkpt>
      <trkpt lat="47.03068" lon="2.24299">
        <ele>145</ele>
        <time>2019-02-04T20:07:50Z</time>
      </trkpt>
      <trkpt lat="47.03042" lon="2.24104">
        <ele>150</ele>
        <time>2019-02-04T20:08:50Z</time>
      </trkpt>
      <trkpt lat="47.0304" lon="2.24071">
        <ele>150</ele>
        <time>2019-02-04T20:09:50Z</time>
      </trkpt>
      <trkpt lat="47.03027" lon="2.23991">
        <ele>151</ele>
        <time>2019-02-04T20:10:50Z</time>
      </trkpt>
      <trkpt lat="47.03032" lon="2.23865">
        <ele>153</ele>
        <time>2019-02-04T20:11:50Z</time>
      </trkpt>
      <trkpt lat="47.02969" lon="2.2356">
        <ele>150</ele>
        <time>2019-02-04T20:12:50Z</time>
      </trkpt>
      <trkpt lat="47.02926" lon="2.23393">
        <ele>146</ele>
        <time>2019-02-04T20:13:50Z</time>
      </trkpt>
      <trkpt lat="47.02918" lon="2.23344">
        <ele>144</ele>
        <time>2019-02-04T20:14:50Z</time>
      </trkpt>
      <trkpt lat="47.02915" lon="2.23035">
        <ele>143</ele>
        <time>2019-02-04T20:15:50Z</time>
      </trkpt>
      <trkpt lat="47.02918" lon="2.2295">
        <ele>141</ele>
        <time>2019-02-04T20:16:50Z</time>
      </trkpt>
      <trkpt lat="47.02908" lon="2.22807">
        <ele>136</ele>
        <time>2019-02-04T20:17:50Z</time>
      </trkpt>
      <trkpt lat="47.0291" lon="2.22695">
        <ele>132</ele>
        <time>2019-02-04T20:18:50Z</time>
      </trkpt>
      <trkpt lat="47.02905" lon="2.22655">
        <ele>131</ele>
        <time>2019-02-04T20:19:50Z</time>
      </trkpt>
      <trkpt lat="47.02882" lon="2.22467">
        <ele>127</ele>
        <time>2019-02-04T20:20:50Z</time>
      </trkpt>
      <trkpt lat="47.02909" lon="2.22309">
        <ele>124</ele>
        <time>2019-02-04T20:21:50Z</time>
      </trkpt>
      <trkpt lat="47.02904" lon="2.22265">
        <ele>122</ele>
        <time>2019-02-04T20:22:50Z</time>
      </trkpt>
      <trkpt lat="47.02915" lon="2.22155">
        <ele>120</ele>
        <time>2019-02-04T20:23:50Z</time>
      </trkpt>
      <trkpt lat="47.02915" lon="2.22112">
        <ele>119</ele>
        <time>2019-02-04T20:24:50Z</time>
      </trkpt>
      <trkpt lat="47.02913" lon="2.2207">
        <ele>119</ele>
        <time>2019-02-04T20:25:50Z</time>
      </trkpt>
      <trkpt lat="47.02875" lon="2.21977">
        <ele>119</ele>
        <time>2019-02-04T20:26:50Z</time>
      </trkpt>
      <trkpt lat="47.02735" lon="2.21616">
        <ele>118</ele>
        <time>2019-02-04T20:27:50Z</time>
      </trkpt>
      <trkpt lat="47.02648" lon="2.21331">
        <ele>116</ele>
        <time>2019-02-04T20:28:50Z</time>
      </trkpt>
      <trkpt lat="47.02565" lon="2.2104">
        <ele>120</ele>
        <time>2019-02-04T20:29:50Z</time>
      </trkpt>
      <trkpt lat="47.02525" lon="2.2082">
        <ele>130</ele>
        <time>2019-02-04T20:30:50Z</time>
      </trkpt>
      <trkpt lat="47.02501" lon="2.20707">
        <ele>131</ele>
        <time>2019-02-04T20:31:50Z</time>
      </trkpt>
      <trkpt lat="47.02459" lon="2.20586">
        <ele>132</ele>
        <time>2019-02-04T20:32:50Z</time>
      </trkpt>
      <trkpt lat="47.02412" lon="2.20446">
        <ele>130</ele>
        <time>2019-02-04T20:33:50Z</time>
      </trkpt>
      <trkpt lat="47.02302" lon="2.20266">
        <ele>130</ele>
        <time>2019-02-04T20:34:50Z</time>
      </trkpt>
      <trkpt lat="47.02228" lon="2.20172">
        <ele>132</ele>
        <time>2019-02-04T20:35:50Z</time>
      </trkpt>
      <trkpt lat="47.02179" lon="2.20156">
        <ele>137</ele>
        <time>2019-02-04T20:36:50Z</time>
      </trkpt>
      <trkpt lat="47.02087" lon="2.20158">
        <ele>135</ele>
        <time>2019-02-04T20:37:50Z</time>
      </trkpt>
      <trkpt lat="47.02068" lon="2.2015">
        <ele>135</ele>
        <time>2019-02-04T20:38:50Z</time>
      </trkpt>
      <trkpt lat="47.02039" lon="2.201">
        <ele>136</ele>
        <time>2019-02-04T20:39:50Z</time>
      </trkpt>
      <trkpt lat="47.01913" lon="2.19773">
        <ele>136</ele>
        <time>2019-02-04T20:40:50Z</time>
      </trkpt>
      <trkpt lat="47.01761" lon="2.19358">
        <ele>143</ele>
        <time>2019-02-04T20:41:50Z</time>
      </trkpt>
      <trkpt lat="47.01589" lon="2.18879">
        <ele>154</ele>
        <time>2019-02-04T20:42:50Z</time>
      </trkpt>
      <trkpt lat="47.01398" lon="2.18381">
        <ele>156</ele>
        <time>2019-02-04T20:43:50Z</time>
      </trkpt>
      <trkpt lat="47.01075" lon="2.1751">
        <ele>161</ele>
        <time>2019-02-04T20:44:50Z</time>
      </trkpt>
      <trkpt lat="47.00865" lon="2.1696">
        <ele>160</ele>
        <time>2019-02-04T20:45:50Z</time>
      </trkpt>
      <trkpt lat="47.00676" lon="2.1645">
        <ele>163</ele>
        <time>2019-02-04T20:46:50Z</time>
      </trkpt>
      <trkpt lat="47.004" lon="2.15714">
        <ele>161</ele>
        <time>2019-02-04T20:47:50Z</time>
      </trkpt>
      <trkpt lat="47.00327" lon="2.15471">
        <ele>158</ele>
        <time>2019-02-04T20:48:50Z</time>
      </trkpt>
      <trkpt lat="47.00225" lon="2.1513">
        <ele>156</ele>
        <time>2019-02-04T20:49:50Z</time>
      </trkpt>
      <trkpt lat="47.0014" lon="2.14834">
        <ele>156</ele>
        <time>2019-02-04T20:50:50Z</time>
      </trkpt>
      <trkpt lat="47.00119" lon="2.14758">
        <ele>157</ele>
        <time>2019-02-04T20:51:50Z</time>
      </trkpt>
      <trkpt lat="47.00021" lon="2.14555">
        <ele>161</ele>
        <time>2019-02-04T20:52:50Z</time>
      </trkpt>
      <trkpt lat="46.99928" lon="2.14359">
        <ele>160</ele>
        <time>2019-02-04T20:53:50Z</time>
      </trkpt>
      <trkpt lat="46.99797" lon="2.1398">
        <ele>158</ele>
        <time>2019-02-04T20:54:50Z</time>
      </trkpt>
      <trkpt lat="46.99763" lon="2.1386">
        <ele>157</ele>
        <time>2019-02-04T20:55:50Z</time>
      </trkpt>
      <trkpt lat="46.99729" lon="2.13734">
        <ele>158</ele>
        <time>2019-02-04T20:56:50Z</time>
      </trkpt>
      <trkpt lat="46.99709" lon="2.13643">
        <ele>158</ele>
        <time>2019-02-04T20:57:50Z</time>
      </trkpt>
      <trkpt lat="46.9966" lon="2.13414">
        <ele>157</ele>
        <time>2019-02-04T20:58:50Z</time>
      </trkpt>
      <trkpt lat="46.99614" lon="2.13288">
        <ele>154</ele>
        <time>2019-02-04T20:59:50Z</time>
      </trkpt>
      <trkpt lat="46.99526" lon="2.1308">
        <ele>149</ele>
        <time>2019-02-04T21:00:50Z</time>
      </trkpt>
      <trkpt lat="46.99506" lon="2.13031">
        <ele>148</ele>
        <time>2019-02-04T21:01:50Z</time>
      </trkpt>
      <trkpt lat="46.99477" lon="2.1287">
        <ele>142</ele>
        <time>2019-02-04T21:02:50Z</time>
      </trkpt>
      <trkpt lat="46.99463" lon="2.12807">
        <ele>140</ele>
        <time>2019-02-04T21:03:50Z</time>
      </trkpt>
      <trkpt lat="46.99442" lon="2.12741">
        <ele>136</ele>
        <time>2019-02-04T21:04:50Z</time>
      </trkpt>
      <trkpt lat="46.99408" lon="2.1271">
        <ele>134</ele>
        <time>2019-02-04T21:05:50Z</time>
      </trkpt>
      <trkpt lat="46.99345" lon="2.12551">
        <ele>127</ele>
        <time>2019-02-04T21:06:50Z</time>
      </trkpt>
      <trkpt lat="46.99329" lon="2.1254">
        <ele>126</ele>
        <time>2019-02-04T21:07:50Z</time>
      </trkpt>
      <trkpt lat="46.99324" lon="2.12486">
        <ele>125</ele>
        <time>2019-02-04T21:08:50Z</time>
      </trkpt>
      <trkpt lat="46.99327" lon="2.12452">
        <ele>124</ele>
        <time>2019-02-04T21:09:50Z</time>
      </trkpt>
      <trkpt lat="46.99314" lon="2.12448">
        <ele>124</ele>
        <time>2019-02-04T21:10:50Z</time>
      </trkpt>
      <trkpt lat="46.993" lon="2.12445">
        <ele>124</ele>
        <time>2019-02-04T21:11:50Z</time>
      </trkpt>
      <trkpt lat="46.9929" lon="2.12437">
        <ele>123</ele>
        <time>2019-02-04T21:12:50Z</time>
      </trkpt>
      <trkpt lat="46.9929" lon="2.12414">
        <ele>123</ele>
        <time>2019-02-04T21:13:50Z</time>
      </trkpt>
      <trkpt lat="46.99255" lon="2.12415">
        <ele>123</ele>
        <time>2019-02-04T21:14:50Z</time>
      </trkpt>
      <trkpt lat="46.99259" lon="2.12322">
        <ele>124</ele>
        <time>2019-02-04T21:15:50Z</time>
      </trkpt>
      <trkpt lat="46.99261" lon="2.12186">
        <ele>125</ele>
        <time>2019-02-04T21:16:50Z</time>
      </trkpt>
      <trkpt lat="46.99268" lon="2.12001">
        <ele>126</ele>
        <time>2019-02-04T21:17:50Z</time>
      </trkpt>
      <trkpt lat="46.99272" lon="2.11912">
        <ele>129</ele>
        <time>2019-02-04T21:18:50Z</time>
      </trkpt>
      <trkpt lat="46.99346" lon="2.1192">
        <ele>127</ele>
        <time>2019-02-04T21:19:50Z</time>
      </trkpt>
    </trkseg>
  </trk>
</gpx>